createdAt,value
2017-11-16T00:02:21.286Z,94.39
2017-11-16T00:04:55.383Z,95.08
2017-11-16T00:07:26.974Z,94.76
2017-11-16T00:12:30.740Z,95.07
2017-11-16T00:15:01.405Z,94.80
2017-11-16T00:17:32.590Z,94.43
2017-11-16T00:20:06.924Z,94.49
2017-11-16T00:22:37.385Z,94.55
2017-11-16T00:25:09.830Z,94.59
2017-11-16T00:27:42.216Z,94.19
2017-11-16T00:33:05.167Z,94.47
2017-11-16T00:35:36.911Z,94.45
2017-11-16T00:40:42.174Z,94.94
2017-11-16T00:43:12.791Z,94.95
2017-11-16T00:45:43.198Z,94.92
2017-11-16T00:48:14.422Z,95.07
2017-11-16T00:50:44.634Z,94.15
2017-11-16T00:53:14.537Z,94.28
2017-11-16T00:55:46.540Z,93.10
2017-11-16T00:58:16.756Z,93.84
2017-11-16T01:00:47.148Z,94.22
2017-11-16T01:03:20.237Z,94.58
2017-11-16T01:05:50.575Z,94.27
2017-11-16T01:08:21.628Z,94.34
2017-11-16T01:10:52.390Z,94.51
2017-11-16T01:13:22.687Z,94.97
2017-11-16T01:15:53.423Z,94.75
2017-11-16T01:18:23.728Z,94.55
2017-11-16T01:23:28.459Z,94.80
2017-11-16T01:28:32.656Z,94.63
2017-11-16T01:33:36.749Z,94.41
2017-11-16T01:36:08.585Z,94.54
2017-11-16T01:38:38.668Z,95.17
2017-11-16T01:41:11.297Z,95.23
2017-11-16T01:43:40.984Z,95.67
2017-11-16T01:48:45.760Z,96.00
2017-11-16T01:51:16.268Z,96.16
2017-11-16T01:53:46.709Z,96.12
2017-11-16T01:56:18.081Z,96.01
2017-11-16T01:58:52.706Z,96.05
2017-11-16T02:01:24.149Z,96.06
2017-11-16T02:03:54.192Z,95.60
2017-11-16T02:06:25.814Z,95.67
2017-11-16T02:14:07.502Z,95.33
2017-11-16T02:16:37.650Z,95.50
2017-11-16T02:19:08.583Z,95.31
2017-11-16T02:26:45.291Z,94.72
2017-11-16T02:29:14.931Z,94.65
2017-11-16T02:45:08.081Z,94.83
2017-11-16T03:03:24.722Z,95.54
2017-11-16T03:33:12.771Z,95.95
2017-11-16T03:43:26.854Z,95.43
2017-11-16T04:16:23.862Z,93.62
2017-11-16T04:24:03.330Z,94.31
2017-11-16T04:26:34.186Z,94.34
2017-11-16T04:31:40.881Z,94.45
2017-11-16T04:34:10.678Z,95.37
2017-11-16T04:36:40.829Z,95.52
2017-11-16T04:41:45.434Z,95.07
2017-11-16T04:46:59.761Z,93.57
2017-11-16T04:54:40.271Z,94.96
2017-11-16T04:59:47.739Z,95.13
2017-11-16T05:02:17.652Z,94.81
2017-11-16T05:04:48.017Z,94.80
2017-11-16T05:07:18.714Z,94.80
2017-11-16T05:09:49.401Z,94.32
2017-11-16T05:12:20.843Z,94.51
2017-11-16T05:20:09.684Z,94.58
2017-11-16T05:22:40.785Z,94.82
2017-11-16T05:25:11.343Z,94.44
2017-11-16T05:30:20.321Z,93.83
2017-11-16T05:35:37.937Z,93.93
2017-11-16T05:40:43.204Z,94.12
2017-11-16T05:46:00.970Z,94.46
2017-11-16T05:48:33.106Z,94.20
2017-11-16T05:51:03.855Z,94.33
2017-11-16T05:53:33.899Z,94.32
2017-11-16T05:56:05.144Z,94.08
2017-11-16T05:58:35.286Z,94.08
2017-11-16T06:01:05.282Z,93.76
2017-11-16T06:03:36.316Z,93.96
2017-11-16T06:06:08.261Z,93.95
2017-11-16T06:08:38.552Z,93.68
2017-11-16T06:11:08.753Z,92.86
2017-11-16T06:13:41.535Z,92.65
2017-11-16T06:16:13.504Z,93.19
2017-11-16T06:18:43.507Z,93.47
2017-11-16T06:21:13.893Z,92.92
2017-11-16T06:26:23.188Z,92.87
2017-11-16T06:28:53.088Z,93.52
2017-11-16T06:31:22.863Z,93.78
2017-11-16T06:33:53.558Z,93.42
2017-11-16T06:36:23.755Z,93.13
2017-11-16T06:38:53.521Z,92.72
2017-11-16T06:41:23.270Z,91.85
2017-11-16T06:43:53.290Z,91.74
2017-11-16T06:46:37.244Z,92.31
2017-11-16T06:49:11.000Z,93.17
2017-11-16T06:51:41.239Z,92.49
2017-11-16T06:54:12.710Z,90.29
2017-11-16T06:56:43.952Z,89.32
2017-11-16T06:59:14.835Z,89.70
2017-11-16T07:01:44.919Z,88.76
2017-11-16T07:04:20.131Z,88.38
2017-11-16T07:06:54.051Z,88.91
2017-11-16T07:09:25.534Z,88.26
2017-11-16T07:12:03.105Z,87.87
2017-11-16T07:14:40.262Z,87.08
2017-11-16T07:17:12.336Z,86.52
2017-11-16T07:19:43.485Z,86.76
2017-11-16T07:22:13.444Z,86.48
2017-11-16T07:24:44.665Z,87.21
2017-11-16T07:27:16.227Z,87.19
2017-11-16T07:29:46.096Z,86.21
2017-11-16T07:32:19.692Z,86.86
2017-11-16T07:34:49.731Z,86.47
2017-11-16T07:37:19.649Z,86.10
2017-11-16T07:39:49.441Z,85.93
2017-11-16T07:42:19.340Z,85.04
2017-11-16T07:44:49.226Z,84.79
2017-11-16T07:47:19.060Z,84.74
2017-11-16T07:49:48.840Z,84.40
2017-11-16T07:52:18.690Z,83.58
2017-11-16T07:54:48.375Z,81.91
2017-11-16T07:57:18.062Z,81.00
2017-11-16T08:02:31.942Z,81.14
2017-11-16T08:05:01.865Z,81.04
2017-11-16T08:07:31.847Z,80.93
2017-11-16T08:10:01.766Z,80.61
2017-11-16T08:12:31.653Z,80.90
2017-11-16T08:15:01.809Z,79.40
2017-11-16T08:17:33.689Z,78.72
2017-11-16T08:20:03.594Z,79.82
2017-11-16T08:22:33.550Z,79.50
2017-11-16T08:25:03.555Z,79.88
2017-11-16T08:27:33.414Z,79.19
2017-11-16T08:30:03.473Z,78.97
2017-11-16T08:32:33.666Z,77.58
2017-11-16T08:35:03.573Z,77.52
2017-11-16T08:37:33.546Z,77.20
2017-11-16T08:40:03.552Z,75.28
2017-11-16T08:42:33.874Z,74.61
2017-11-16T08:45:07.397Z,74.80
2017-11-16T08:47:38.138Z,74.21
2017-11-16T08:50:08.495Z,73.84
2017-11-16T08:52:38.184Z,72.71
2017-11-16T08:55:08.350Z,72.08
2017-11-16T08:57:38.358Z,71.73
2017-11-16T09:00:09.557Z,71.61
2017-11-16T09:02:39.249Z,71.24
2017-11-16T09:05:09.061Z,72.68
2017-11-16T09:07:38.980Z,72.73
2017-11-16T09:10:11.442Z,73.33
2017-11-16T09:12:41.799Z,73.59
2017-11-16T09:15:11.352Z,74.06
2017-11-16T09:17:41.216Z,73.64
2017-11-16T09:20:12.017Z,72.90
2017-11-16T09:22:42.080Z,71.84
2017-11-16T09:25:12.088Z,70.16
2017-11-16T09:27:42.369Z,70.37
2017-11-16T09:30:12.156Z,70.17
2017-11-16T09:32:43.129Z,69.76
2017-11-16T09:35:13.615Z,69.38
2017-11-16T09:37:43.321Z,68.72
2017-11-16T09:40:14.571Z,67.90
2017-11-16T09:42:44.573Z,69.70
2017-11-16T09:45:14.772Z,67.91
2017-11-16T09:47:44.594Z,66.99
2017-11-16T09:50:14.745Z,68.07
2017-11-16T09:52:44.456Z,67.60
2017-11-16T09:55:14.551Z,67.38
2017-11-16T09:57:44.841Z,68.14
2017-11-16T10:00:16.890Z,67.78
2017-11-16T10:02:46.701Z,65.88
2017-11-16T10:05:17.361Z,65.30
2017-11-16T10:08:00.999Z,64.47
2017-11-16T10:10:35.147Z,63.14
2017-11-16T10:13:05.272Z,61.23
2017-11-16T10:15:35.121Z,55.98
2017-11-16T10:18:04.897Z,53.12
2017-11-16T10:20:34.846Z,53.63
2017-11-16T10:23:05.555Z,51.55
2017-11-16T10:25:35.597Z,50.53
2017-11-16T10:28:05.426Z,45.44
2017-11-16T10:30:35.265Z,42.27
2017-11-16T10:33:05.317Z,34.45
2017-11-16T10:35:34.717Z,34.54
2017-11-16T10:38:04.209Z,31.84
2017-11-16T10:40:34.112Z,31.69
2017-11-16T10:43:03.721Z,30.37
2017-11-16T10:45:33.833Z,30.09
2017-11-16T10:48:04.526Z,29.43
2017-11-16T10:50:35.038Z,27.03
2017-11-16T10:53:07.901Z,26.95
2017-11-16T10:55:38.567Z,26.68
2017-11-16T10:58:08.320Z,26.41
2017-11-16T11:00:38.232Z,25.78
2017-11-16T11:03:09.462Z,25.57
2017-11-16T11:05:39.215Z,24.93
2017-11-16T11:08:09.384Z,24.84
2017-11-16T11:10:40.495Z,24.75
2017-11-16T11:13:11.078Z,26.47
2017-11-16T11:15:41.669Z,25.45
2017-11-16T11:18:12.644Z,24.95
2017-11-16T11:20:43.852Z,27.24
2017-11-16T11:23:13.463Z,27.55
2017-11-16T11:25:47.530Z,27.04
2017-11-16T11:28:20.359Z,26.68
2017-11-16T11:30:50.303Z,27.83
2017-11-16T11:33:20.124Z,27.09
2017-11-16T11:35:49.864Z,26.63
2017-11-16T11:38:19.695Z,27.65
2017-11-16T11:40:49.316Z,27.44
2017-11-16T11:43:18.932Z,29.23
2017-11-16T11:45:49.267Z,28.57
2017-11-16T11:48:19.068Z,27.46
2017-11-16T11:50:48.945Z,27.42
2017-11-16T11:53:20.797Z,26.34
2017-11-16T11:55:50.743Z,27.05
2017-11-16T11:58:21.309Z,28.79
2017-11-16T12:00:51.005Z,27.63
2017-11-16T12:03:25.359Z,28.73
2017-11-16T12:05:56.660Z,26.99
2017-11-16T12:08:27.900Z,28.42
2017-11-16T12:10:57.564Z,28.79
2017-11-16T12:13:26.767Z,25.98
2017-11-16T12:15:56.493Z,29.60
2017-11-16T12:18:26.094Z,29.44
2017-11-16T12:20:55.772Z,32.01
2017-11-16T12:23:25.926Z,33.30
2017-11-16T12:25:55.511Z,31.45
2017-11-16T12:28:25.238Z,29.65
2017-11-16T12:30:54.517Z,28.75
2017-11-16T12:33:27.983Z,25.56
2017-11-16T12:36:00.903Z,25.88
2017-11-16T12:38:31.716Z,25.73
2017-11-16T12:41:01.426Z,28.39
2017-11-16T12:43:31.915Z,34.33
2017-11-16T12:46:01.217Z,33.69
2017-11-16T12:48:30.985Z,36.83
2017-11-16T12:51:00.665Z,39.41
2017-11-16T12:53:47.603Z,36.80
2017-11-16T12:56:29.862Z,36.95
2017-11-16T12:59:00.435Z,34.80
2017-11-16T13:01:30.268Z,30.81
2017-11-16T13:04:00.074Z,30.41
2017-11-16T13:06:29.791Z,31.44
2017-11-16T13:09:01.245Z,28.39
2017-11-16T13:11:32.921Z,28.08
2017-11-16T13:14:05.851Z,28.81
2017-11-16T13:16:36.602Z,29.80
2017-11-16T13:19:06.259Z,30.14
2017-11-16T13:21:36.463Z,34.57
2017-11-16T13:24:16.291Z,38.11
2017-11-16T13:27:01.373Z,41.85
2017-11-16T13:29:31.829Z,45.74
2017-11-16T13:32:02.304Z,49.80
2017-11-16T13:34:32.825Z,51.51
2017-11-16T13:37:03.622Z,54.14
2017-11-16T13:39:35.402Z,57.07
2017-11-16T13:42:05.229Z,59.33
2017-11-16T13:44:35.109Z,61.40
2017-11-16T13:47:05.524Z,61.31
2017-11-16T13:49:35.406Z,61.96
2017-11-16T13:52:06.197Z,61.99
2017-11-16T13:54:35.840Z,62.92
2017-11-16T13:57:05.784Z,63.37
2017-11-16T13:59:35.937Z,64.47
2017-11-16T14:02:06.805Z,65.48
2017-11-16T14:04:37.670Z,64.95
2017-11-16T14:07:08.510Z,65.27
2017-11-16T14:09:38.510Z,65.76
2017-11-16T14:12:09.612Z,66.32
2017-11-16T14:14:43.855Z,66.21
2017-11-16T14:17:13.832Z,68.18
2017-11-16T14:19:45.689Z,68.57
2017-11-16T14:22:16.984Z,67.92
2017-11-16T14:24:46.515Z,68.07
2017-11-16T14:27:17.117Z,68.28
2017-11-16T14:29:52.324Z,68.96
2017-11-16T14:32:22.370Z,69.31
2017-11-16T14:34:52.382Z,69.34
2017-11-16T14:37:23.573Z,70.61
2017-11-16T14:39:53.896Z,70.49
2017-11-16T14:42:23.655Z,70.25
2017-11-16T14:44:53.706Z,70.85
2017-11-16T14:47:23.678Z,70.32
2017-11-16T14:49:53.585Z,70.61
2017-11-16T14:52:23.512Z,70.91
2017-11-16T14:54:53.802Z,71.25
2017-11-16T14:57:24.820Z,71.80
2017-11-16T14:59:55.042Z,71.74
2017-11-16T15:02:25.782Z,72.09
2017-11-16T15:04:55.882Z,72.09
2017-11-16T15:07:25.733Z,72.29
2017-11-16T15:09:57.310Z,72.43
2017-11-16T15:12:27.805Z,73.26
2017-11-16T15:14:58.155Z,72.60
2017-11-16T15:17:28.360Z,72.67
2017-11-16T15:19:59.031Z,72.69
2017-11-16T15:22:29.248Z,73.42
2017-11-16T15:24:59.595Z,73.62
2017-11-16T15:27:31.669Z,74.08
2017-11-16T15:30:01.560Z,73.85
2017-11-16T15:32:31.487Z,74.46
2017-11-16T15:35:01.899Z,74.39
2017-11-16T15:37:32.412Z,74.58
2017-11-16T15:40:03.658Z,74.26
2017-11-16T15:42:33.639Z,74.68
2017-11-16T15:45:07.380Z,74.32
2017-11-16T15:47:37.499Z,74.59
2017-11-16T15:50:07.829Z,74.85
2017-11-16T15:52:37.658Z,75.46
2017-11-16T15:55:08.925Z,75.51
2017-11-16T15:57:40.025Z,74.78
2017-11-16T16:00:10.268Z,74.63
2017-11-16T16:02:40.153Z,75.27
2017-11-16T16:05:11.168Z,75.29
2017-11-16T16:07:41.063Z,75.81
2017-11-16T16:10:11.428Z,75.91
2017-11-16T16:12:41.282Z,75.70
2017-11-16T16:15:11.220Z,76.22
2017-11-16T16:17:41.259Z,76.62
2017-11-16T16:20:11.250Z,76.02
2017-11-16T16:22:41.362Z,76.43
2017-11-16T16:25:11.276Z,77.16
2017-11-16T16:27:41.180Z,77.31
2017-11-16T16:30:11.062Z,76.46
2017-11-16T16:32:40.614Z,76.57
2017-11-16T16:35:10.772Z,76.45
2017-11-16T16:37:41.692Z,76.75
2017-11-16T16:40:12.225Z,77.07
2017-11-16T16:42:42.245Z,77.26
2017-11-16T16:45:12.325Z,78.03
2017-11-16T16:47:42.139Z,78.10
2017-11-16T16:50:12.120Z,78.03
2017-11-16T16:52:42.512Z,77.73
2017-11-16T16:55:12.770Z,77.74
2017-11-16T16:57:42.720Z,77.67
2017-11-16T17:00:12.582Z,77.75
2017-11-16T17:02:43.308Z,78.02
2017-11-16T17:05:13.319Z,78.15
2017-11-16T17:07:43.413Z,78.13
2017-11-16T17:10:13.194Z,77.67
2017-11-16T17:12:43.147Z,77.92
2017-11-16T17:15:12.673Z,77.73
2017-11-16T17:17:42.514Z,78.66
2017-11-16T17:20:12.913Z,78.77
2017-11-16T17:22:43.858Z,78.62
2017-11-16T17:25:13.878Z,78.71
2017-11-16T17:27:46.143Z,78.45
2017-11-16T17:30:16.641Z,78.83
2017-11-16T17:32:46.464Z,78.75
2017-11-16T17:35:16.397Z,78.38
2017-11-16T17:37:46.403Z,77.76
2017-11-16T17:40:16.296Z,78.15
2017-11-16T17:42:46.079Z,78.32
2017-11-16T17:45:15.686Z,78.61
2017-11-16T17:47:49.442Z,78.92
2017-11-16T17:50:19.330Z,79.37
2017-11-16T17:52:49.134Z,79.61
2017-11-16T17:55:18.907Z,79.89
2017-11-16T17:57:48.412Z,79.81
2017-11-16T18:00:18.141Z,79.96
2017-11-16T18:02:49.541Z,80.40
2017-11-16T18:05:19.138Z,84.42
2017-11-16T18:07:48.898Z,81.52
2017-11-16T18:10:36.170Z,81.42
2017-11-16T18:24:35.396Z,81.03
2017-11-16T18:30:34.595Z,82.77
2017-11-16T18:35:55.836Z,82.68
2017-11-16T18:38:35.455Z,83.09
2017-11-16T18:41:06.834Z,82.76
2017-11-16T18:43:36.644Z,82.97
2017-11-16T18:46:06.613Z,82.76
2017-11-16T18:48:36.534Z,82.81
2017-11-16T18:51:06.534Z,82.75
2017-11-16T18:53:37.239Z,83.44
2017-11-16T18:56:07.138Z,83.63
2017-11-16T18:58:37.020Z,84.40
2017-11-16T19:01:07.216Z,84.86
2017-11-16T19:03:39.219Z,85.33
2017-11-16T19:06:10.160Z,85.70
2017-11-16T19:08:40.065Z,85.55
2017-11-16T19:11:10.090Z,86.01
2017-11-16T19:13:39.916Z,86.14
2017-11-16T19:16:09.989Z,86.23
2017-11-16T19:18:39.900Z,86.46
2017-11-16T19:21:09.867Z,86.82
2017-11-16T19:23:39.591Z,86.04
2017-11-16T19:26:09.680Z,86.31
2017-11-16T19:28:39.538Z,86.57
2017-11-16T19:31:09.515Z,86.44
2017-11-16T19:33:39.637Z,86.16
2017-11-16T19:36:09.791Z,85.96
2017-11-16T19:38:41.214Z,85.49
2017-11-16T19:41:13.346Z,85.91
2017-11-16T19:48:56.942Z,87.73
2017-11-16T19:51:29.153Z,87.29
2017-11-16T19:53:59.214Z,87.76
2017-11-16T19:56:29.395Z,87.94
2017-11-16T19:58:59.965Z,88.12
2017-11-16T20:04:05.358Z,88.09
2017-11-16T20:06:35.860Z,87.97
2017-11-16T20:09:05.603Z,89.11
2017-11-16T20:11:35.744Z,89.94
2017-11-16T20:14:05.963Z,90.62
2017-11-16T20:16:35.943Z,90.79
2017-11-16T20:19:07.109Z,90.27
2017-11-16T20:21:36.953Z,89.79
2017-11-16T20:24:07.013Z,89.60
2017-11-16T20:26:38.051Z,90.11
2017-11-16T20:29:09.016Z,89.99
2017-11-16T20:31:39.432Z,90.17
2017-11-16T20:34:10.167Z,91.00
2017-11-16T20:36:40.091Z,90.81
2017-11-16T20:42:49.198Z,90.82
2017-11-16T20:54:03.506Z,90.58
2017-11-16T20:56:33.415Z,90.07
2017-11-16T20:59:03.211Z,90.09
2017-11-16T21:01:38.054Z,89.46
2017-11-16T21:04:12.382Z,89.30
2017-11-16T21:09:33.377Z,88.91
2017-11-16T21:12:03.907Z,88.01
2017-11-16T21:27:12.290Z,87.73
2017-11-16T21:32:32.881Z,88.04
2017-11-16T21:35:11.121Z,87.14
2017-11-16T21:37:42.884Z,87.14
2017-11-16T21:42:48.532Z,86.87
2017-11-16T21:45:19.517Z,86.89
2017-11-16T21:47:50.474Z,86.01
2017-11-16T21:52:56.202Z,85.85
2017-11-16T21:55:26.898Z,85.38
2017-11-16T21:57:56.863Z,85.50
2017-11-16T22:00:26.625Z,85.42
2017-11-16T22:02:56.587Z,84.63
2017-11-16T22:05:26.924Z,84.95
2017-11-16T22:10:33.932Z,84.65
2017-11-16T22:13:04.858Z,84.77
2017-11-16T22:15:36.474Z,84.60
2017-11-16T22:18:06.827Z,84.12
2017-11-16T22:20:38.543Z,84.13
2017-11-16T22:23:08.623Z,83.90
2017-11-16T22:30:48.121Z,83.87
2017-11-16T22:33:20.566Z,83.53
2017-11-16T22:35:58.298Z,83.66
2017-11-16T22:38:28.976Z,83.75
2017-11-16T22:43:33.931Z,84.21
2017-11-16T22:48:42.405Z,84.47
2017-11-16T22:51:14.635Z,84.44
2017-11-16T22:53:45.371Z,84.96
2017-11-16T22:56:17.708Z,84.87
2017-11-16T23:01:33.172Z,85.08
2017-11-16T23:04:03.071Z,85.12
2017-11-16T23:06:33.776Z,85.39
2017-11-16T23:11:37.653Z,85.12
2017-11-16T23:14:09.081Z,85.53
2017-11-16T23:16:40.785Z,85.21
2017-11-16T23:19:10.875Z,85.69
2017-11-16T23:21:43.478Z,85.47
2017-11-16T23:26:47.919Z,85.34
2017-11-16T23:29:18.071Z,85.39
2017-11-16T23:31:52.185Z,86.32
2017-11-16T23:34:23.922Z,86.12
2017-11-16T23:36:55.796Z,85.74
2017-11-16T23:55:09.491Z,85.53
2017-11-16T23:57:39.876Z,85.35
